createdAt,value
2023-03-05T00:01:20.629Z,3.30
2023-03-05T00:03:47.897Z,3.30
2023-03-05T00:06:17.686Z,3.30
2023-03-05T00:08:45.141Z,3.30
2023-03-05T00:11:13.201Z,3.30
2023-03-05T00:13:41.816Z,3.20
2023-03-05T00:16:12.035Z,3.20
2023-03-05T00:18:40.058Z,3.20
2023-03-05T00:21:19.608Z,3.20
2023-03-05T00:23:46.785Z,3.20
2023-03-05T00:26:14.118Z,3.10
2023-03-05T00:28:41.382Z,3.20
2023-03-05T00:31:08.787Z,3.20
2023-03-05T00:33:36.137Z,3.20
2023-03-05T00:36:06.699Z,3.10
2023-03-05T00:38:33.986Z,3.20
2023-03-05T00:41:01.194Z,3.10
2023-03-05T00:43:29.091Z,3.10
2023-03-05T00:45:56.841Z,3.10
2023-03-05T00:48:24.168Z,3.00
2023-03-05T00:50:51.669Z,3.00
2023-03-05T00:53:19.319Z,3.00
2023-03-05T00:55:46.601Z,3.00
2023-03-05T00:58:13.923Z,3.00
2023-03-05T01:00:41.543Z,2.90
2023-03-05T01:03:09.662Z,2.90
2023-03-05T01:05:37.063Z,2.90
2023-03-05T01:08:04.510Z,2.90
2023-03-05T01:10:31.686Z,2.90
2023-03-05T01:12:58.947Z,2.90
2023-03-05T01:15:26.263Z,2.90
2023-03-05T01:17:53.863Z,3.00
2023-03-05T01:20:22.697Z,3.00
2023-03-05T01:22:50.015Z,3.00
2023-03-05T01:25:18.019Z,3.00
2023-03-05T01:27:45.239Z,3.00
2023-03-05T01:30:14.515Z,3.00
2023-03-05T01:32:42.977Z,3.00
2023-03-05T01:35:16.810Z,2.90
2023-03-05T01:37:43.988Z,2.90
2023-03-05T01:40:13.917Z,2.90
2023-03-05T01:42:50.101Z,2.90
2023-03-05T01:45:18.827Z,2.90
2023-03-05T01:47:46.154Z,2.80
2023-03-05T01:50:22.938Z,2.80
2023-03-05T01:53:01.849Z,2.80
2023-03-05T01:55:31.115Z,2.80
2023-03-05T01:58:05.183Z,2.70
2023-03-05T02:00:37.993Z,2.70
2023-03-05T02:03:10.822Z,2.70
2023-03-05T02:05:41.340Z,2.70
2023-03-05T02:08:15.029Z,2.70
2023-03-05T02:10:51.928Z,2.60
2023-03-05T02:13:28.207Z,2.60
2023-03-05T02:15:58.284Z,2.60
2023-03-05T02:18:25.613Z,2.60
2023-03-05T02:21:13.082Z,2.60
2023-03-05T02:23:41.309Z,2.60
2023-03-05T02:26:11.656Z,2.60
2023-03-05T02:28:47.675Z,2.60
2023-03-05T02:31:21.605Z,2.60
2023-03-05T02:33:49.132Z,2.60
2023-03-05T02:36:17.109Z,2.60
2023-03-05T02:38:44.696Z,2.60
2023-03-05T02:41:12.492Z,2.50
2023-03-05T02:43:39.512Z,2.50
2023-03-05T02:46:07.589Z,2.50
2023-03-05T02:48:34.757Z,2.50
2023-03-05T02:51:04.531Z,2.50
2023-03-05T02:53:31.622Z,2.50
2023-03-05T02:55:58.874Z,2.50
2023-03-05T02:58:25.984Z,2.50
2023-03-05T03:00:53.175Z,2.50
2023-03-05T03:03:20.424Z,2.40
2023-03-05T03:05:47.507Z,2.40
2023-03-05T03:08:15.350Z,2.40
2023-03-05T03:10:42.403Z,2.40
2023-03-05T03:13:09.452Z,2.40
2023-03-05T03:15:38.059Z,2.40
2023-03-05T03:18:05.482Z,2.40
2023-03-05T03:20:35.045Z,2.40
2023-03-05T03:23:02.347Z,2.40
2023-03-05T03:25:30.152Z,2.40
2023-03-05T03:27:57.263Z,2.30
2023-03-05T03:30:24.372Z,2.40
2023-03-05T03:32:52.546Z,2.30
2023-03-05T03:35:19.650Z,2.30
2023-03-05T03:37:47.982Z,2.30
2023-03-05T03:40:15.087Z,2.30
2023-03-05T03:42:42.149Z,2.30
2023-03-05T03:45:09.802Z,2.30
2023-03-05T03:47:36.899Z,2.30
2023-03-05T03:50:04.696Z,2.30
2023-03-05T03:52:31.724Z,2.30
2023-03-05T03:55:01.803Z,2.30
2023-03-05T03:57:30.460Z,2.30
2023-03-05T03:59:57.542Z,2.20
2023-03-05T04:02:24.694Z,2.20
2023-03-05T04:04:51.994Z,2.30
2023-03-05T04:07:19.303Z,2.20
2023-03-05T04:09:46.361Z,2.20
2023-03-05T04:12:18.080Z,2.20
2023-03-05T04:14:46.577Z,2.20
2023-03-05T04:17:13.988Z,2.20
2023-03-05T04:19:41.529Z,2.20
2023-03-05T04:22:12.963Z,2.20
2023-03-05T04:24:40.047Z,2.20
2023-03-05T04:27:07.398Z,2.10
2023-03-05T04:29:35.071Z,2.10
2023-03-05T04:32:02.396Z,2.10
2023-03-05T04:34:29.488Z,2.10
2023-03-05T04:36:56.581Z,2.10
2023-03-05T04:39:23.704Z,2.10
2023-03-05T04:41:50.883Z,2.10
2023-03-05T04:44:18.217Z,2.10
2023-03-05T04:46:45.577Z,2.00
2023-03-05T04:49:12.780Z,2.10
2023-03-05T04:51:39.895Z,2.10
2023-03-05T04:54:06.885Z,2.10
2023-03-05T04:56:34.348Z,2.10
2023-03-05T04:59:01.370Z,2.10
2023-03-05T05:01:28.535Z,2.00
2023-03-05T05:03:55.608Z,2.00
2023-03-05T05:06:22.643Z,2.00
2023-03-05T05:08:49.755Z,2.00
2023-03-05T05:11:16.804Z,2.00
2023-03-05T05:13:43.939Z,2.00
2023-03-05T05:16:11.055Z,2.00
2023-03-05T05:18:38.521Z,2.00
2023-03-05T05:21:13.681Z,2.00
2023-03-05T05:23:41.000Z,2.00
2023-03-05T05:26:09.552Z,2.00
2023-03-05T05:28:38.531Z,2.00
2023-03-05T05:31:09.541Z,2.00
2023-03-05T05:33:39.521Z,2.00
2023-03-05T05:36:08.968Z,2.00
2023-03-05T05:38:36.401Z,2.00
2023-03-05T05:41:09.196Z,2.00
2023-03-05T05:43:36.720Z,2.00
2023-03-05T05:46:07.121Z,1.90
2023-03-05T05:48:35.986Z,2.00
2023-03-05T05:51:10.981Z,1.90
2023-03-05T05:53:38.967Z,1.90
2023-03-05T05:56:07.978Z,1.80
2023-03-05T05:58:36.009Z,1.80
2023-03-05T06:01:03.148Z,1.80
2023-03-05T06:03:30.461Z,1.80
2023-03-05T06:05:58.582Z,1.80
2023-03-05T06:08:25.598Z,1.80
2023-03-05T06:10:56.410Z,1.80
2023-03-05T06:13:23.494Z,1.80
2023-03-05T06:15:58.355Z,1.80
2023-03-05T06:18:25.465Z,1.80
2023-03-05T06:20:56.662Z,1.80
2023-03-05T06:23:24.528Z,1.80
2023-03-05T06:25:51.997Z,1.80
2023-03-05T06:28:19.429Z,1.80
2023-03-05T06:30:46.619Z,1.80
2023-03-05T06:33:13.786Z,1.80
2023-03-05T06:35:41.340Z,1.80
2023-03-05T06:38:09.445Z,1.80
2023-03-05T06:40:39.348Z,1.90
2023-03-05T06:43:06.562Z,1.80
2023-03-05T06:45:33.648Z,1.90
2023-03-05T06:48:00.778Z,1.90
2023-03-05T06:50:28.300Z,1.90
2023-03-05T06:52:55.453Z,1.90
2023-03-05T06:55:22.617Z,2.00
2023-03-05T06:57:50.876Z,1.90
2023-03-05T07:00:18.189Z,1.90
2023-03-05T07:02:45.375Z,2.00
2023-03-05T07:05:12.568Z,2.00
2023-03-05T07:07:39.716Z,2.00
2023-03-05T07:10:08.190Z,2.00
2023-03-05T07:12:35.978Z,2.00
2023-03-05T07:15:03.155Z,2.00
2023-03-05T07:17:30.348Z,2.00
2023-03-05T07:19:57.348Z,2.00
2023-03-05T07:22:26.293Z,2.10
2023-03-05T07:24:53.305Z,2.10
2023-03-05T07:27:20.352Z,2.10
2023-03-05T07:29:47.462Z,2.10
2023-03-05T07:32:14.572Z,2.20
2023-03-05T07:34:41.634Z,2.20
2023-03-05T07:37:08.763Z,2.20
2023-03-05T07:39:35.836Z,2.20
2023-03-05T07:42:05.127Z,2.30
2023-03-05T07:44:32.448Z,2.30
2023-03-05T07:46:59.809Z,2.30
2023-03-05T07:49:27.227Z,2.40
2023-03-05T07:51:55.687Z,2.40
2023-03-05T07:54:23.126Z,2.40
2023-03-05T07:56:50.585Z,2.40
2023-03-05T07:59:17.832Z,2.50
2023-03-05T08:01:46.488Z,2.50
2023-03-05T08:04:13.864Z,2.60
2023-03-05T08:06:42.478Z,2.70
2023-03-05T08:09:09.638Z,2.70
2023-03-05T08:11:36.918Z,2.80
2023-03-05T08:14:04.772Z,2.80
2023-03-05T08:16:32.973Z,2.90
2023-03-05T08:19:01.577Z,3.00
2023-03-05T08:21:34.394Z,3.00
2023-03-05T08:24:08.024Z,3.10
2023-03-05T08:26:38.652Z,3.10
2023-03-05T08:29:10.615Z,3.10
2023-03-05T08:31:39.545Z,3.10
2023-03-05T08:34:07.460Z,3.10
2023-03-05T08:36:35.045Z,3.20
2023-03-05T08:39:05.983Z,3.10
2023-03-05T08:41:33.338Z,3.00
2023-03-05T08:44:01.204Z,3.00
2023-03-05T08:46:28.633Z,3.00
2023-03-05T08:48:55.988Z,3.00
2023-03-05T08:51:26.091Z,2.90
2023-03-05T08:53:55.568Z,2.90
2023-03-05T08:56:22.841Z,2.90
2023-03-05T08:58:52.755Z,3.00
2023-03-05T09:01:20.059Z,3.00
2023-03-05T09:03:47.435Z,3.00
2023-03-05T09:06:14.709Z,3.00
2023-03-05T09:08:42.307Z,3.00
2023-03-05T09:11:12.009Z,3.00
2023-03-05T09:13:39.372Z,3.00
2023-03-05T09:16:09.259Z,3.00
2023-03-05T09:18:37.043Z,3.10
2023-03-05T09:21:10.245Z,3.20
2023-03-05T09:23:38.179Z,3.30
2023-03-05T09:26:07.034Z,3.30
2023-03-05T09:28:34.262Z,3.30
2023-03-05T09:31:05.994Z,3.30
2023-03-05T09:33:34.779Z,3.30
2023-03-05T09:36:02.858Z,3.30
2023-03-05T09:38:30.173Z,3.50
2023-03-05T09:41:26.947Z,3.40
2023-03-05T09:44:27.667Z,3.50
2023-03-05T09:47:00.330Z,3.40
2023-03-05T09:49:57.076Z,3.40
2023-03-05T09:52:41.939Z,3.50
2023-03-05T09:55:34.833Z,3.60
2023-03-05T09:58:14.384Z,3.70
2023-03-05T10:00:48.413Z,3.70
2023-03-05T10:03:18.419Z,3.60
2023-03-05T10:06:22.471Z,3.50
2023-03-05T10:08:56.646Z,3.40
2023-03-05T10:11:23.840Z,3.40
2023-03-05T10:13:52.445Z,3.60
2023-03-05T10:16:49.680Z,3.60
2023-03-05T10:19:51.709Z,3.60
2023-03-05T10:22:21.213Z,3.60
2023-03-05T10:25:00.898Z,3.70
2023-03-05T10:27:43.213Z,3.80
2023-03-05T10:30:24.313Z,4.00
2023-03-05T10:32:51.858Z,4.30
2023-03-05T10:35:47.122Z,4.40
2023-03-05T10:38:22.976Z,4.50
2023-03-05T10:40:55.409Z,4.50
2023-03-05T10:43:39.668Z,4.40
2023-03-05T10:46:13.220Z,4.30
2023-03-05T10:48:47.398Z,4.10
2023-03-05T10:51:44.557Z,4.10
2023-03-05T10:54:20.596Z,4.00
2023-03-05T10:56:48.167Z,3.80
2023-03-05T10:59:15.524Z,3.60
2023-03-05T11:01:42.882Z,3.50
2023-03-05T11:04:40.710Z,3.20
2023-03-05T11:07:17.211Z,2.80
2023-03-05T11:10:02.296Z,2.70
2023-03-05T11:12:39.707Z,2.70
2023-03-05T11:15:09.867Z,2.80
2023-03-05T11:17:48.066Z,2.90
2023-03-05T11:20:36.505Z,3.00
2023-03-05T11:23:09.214Z,3.20
2023-03-05T11:25:49.398Z,3.20
2023-03-05T11:28:32.187Z,3.30
2023-03-05T11:31:07.631Z,3.20
2023-03-05T11:33:37.315Z,3.30
2023-03-05T11:36:23.890Z,3.30
2023-03-05T11:39:12.448Z,3.30
2023-03-05T11:41:42.402Z,3.20
2023-03-05T11:44:16.763Z,3.10
2023-03-05T11:46:48.356Z,3.10
2023-03-05T11:49:22.909Z,3.10
2023-03-05T11:52:21.557Z,3.10
2023-03-05T11:55:14.897Z,3.20
2023-03-05T11:58:05.188Z,3.20
2023-03-05T12:00:35.711Z,3.30
2023-03-05T12:03:12.871Z,3.30
2023-03-05T12:05:44.788Z,3.30
2023-03-05T12:08:35.081Z,3.40
2023-03-05T12:11:09.717Z,3.30
2023-03-05T12:13:43.221Z,3.20
2023-03-05T12:16:20.430Z,3.10
2023-03-05T12:19:18.546Z,3.00
2023-03-05T12:21:51.125Z,2.90
2023-03-05T12:24:26.687Z,2.80
2023-03-05T12:27:04.161Z,2.80
2023-03-05T12:29:40.081Z,2.70
2023-03-05T12:32:35.466Z,2.70
2023-03-05T12:35:22.608Z,2.80
2023-03-05T12:37:53.782Z,2.80
2023-03-05T12:40:29.882Z,2.90
2023-03-05T12:43:01.221Z,2.90
2023-03-05T12:45:39.895Z,3.00
2023-03-05T12:48:12.383Z,3.00
2023-03-05T12:50:39.518Z,2.90
2023-03-05T12:53:16.356Z,2.80
2023-03-05T12:56:01.220Z,2.80
2023-03-05T12:58:44.667Z,2.80
2023-03-05T13:01:11.813Z,2.90
2023-03-05T13:03:47.137Z,3.00
2023-03-05T13:06:35.047Z,3.00
2023-03-05T13:09:18.566Z,3.10
2023-03-05T13:11:52.006Z,3.20
2023-03-05T13:14:45.317Z,3.30
2023-03-05T13:17:27.196Z,3.30
2023-03-05T13:19:54.250Z,3.30
2023-03-05T13:22:21.606Z,3.30
2023-03-05T13:24:48.669Z,3.40
2023-03-05T13:27:42.505Z,3.40
2023-03-05T13:30:28.374Z,3.70
2023-03-05T13:33:03.273Z,3.80
2023-03-05T13:35:34.550Z,3.80
2023-03-05T13:38:02.667Z,3.90
2023-03-05T13:40:34.380Z,3.90
2023-03-05T13:43:18.375Z,4.00
2023-03-05T13:45:55.185Z,4.10
2023-03-05T13:48:22.532Z,4.10
2023-03-05T13:50:58.057Z,4.10
2023-03-05T13:53:31.074Z,4.20
2023-03-05T13:56:04.083Z,4.30
2023-03-05T13:58:49.101Z,4.30
2023-03-05T14:01:28.668Z,4.40
2023-03-05T14:04:04.017Z,4.30
2023-03-05T14:06:31.433Z,4.30
2023-03-05T14:09:18.758Z,4.20
2023-03-05T14:12:04.053Z,4.10
2023-03-05T14:14:36.872Z,4.10
2023-03-05T14:17:36.636Z,4.10
2023-03-05T14:20:20.094Z,4.20
2023-03-05T14:22:51.082Z,4.30
2023-03-05T14:25:47.419Z,4.20
2023-03-05T14:28:17.521Z,4.30
2023-03-05T14:30:52.319Z,4.40
2023-03-05T14:33:28.824Z,4.30
2023-03-05T14:35:58.217Z,4.30
2023-03-05T14:38:30.305Z,4.20
2023-03-05T14:40:57.864Z,4.20
2023-03-05T14:43:25.150Z,4.30
2023-03-05T14:45:52.516Z,4.20
2023-03-05T14:48:19.753Z,4.10
2023-03-05T14:50:54.122Z,4.10
2023-03-05T14:53:28.351Z,4.10
2023-03-05T14:55:57.395Z,4.10
2023-03-05T14:58:27.738Z,4.10
2023-03-05T15:00:55.798Z,4.00
2023-03-05T15:03:23.659Z,3.90
2023-03-05T15:05:54.503Z,3.90
2023-03-05T15:08:30.732Z,3.90
2023-03-05T15:11:00.932Z,3.80
2023-03-05T15:13:28.236Z,3.80
2023-03-05T15:15:56.220Z,3.70
2023-03-05T15:18:24.087Z,3.70
2023-03-05T15:20:53.291Z,3.70
2023-03-05T15:23:20.870Z,3.70
2023-03-05T15:25:48.246Z,3.60
2023-03-05T15:28:16.237Z,3.60
2023-03-05T15:30:48.075Z,3.60
2023-03-05T15:33:17.206Z,3.60
2023-03-05T15:35:45.214Z,3.60
2023-03-05T15:38:12.476Z,3.50
2023-03-05T15:40:39.741Z,3.50
2023-03-05T15:43:07.044Z,3.40
2023-03-05T15:45:34.356Z,3.40
2023-03-05T15:48:01.804Z,3.40
2023-03-05T15:50:29.224Z,3.40
2023-03-05T15:52:57.136Z,3.30
2023-03-05T15:55:24.709Z,3.30
2023-03-05T15:57:53.150Z,3.30
2023-03-05T16:00:28.348Z,3.30
2023-03-05T16:02:55.765Z,3.30
2023-03-05T16:05:24.355Z,3.30
2023-03-05T16:07:52.506Z,3.30
2023-03-05T16:10:26.193Z,3.30
2023-03-05T16:13:02.759Z,3.30
2023-03-05T16:15:31.836Z,3.30
2023-03-05T16:18:03.079Z,3.30
2023-03-05T16:20:31.402Z,3.30
2023-03-05T16:22:58.751Z,3.30
2023-03-05T16:25:26.919Z,3.30
2023-03-05T16:27:54.127Z,3.30
2023-03-05T16:30:21.632Z,3.20
2023-03-05T16:32:49.002Z,3.20
2023-03-05T16:35:16.495Z,3.20
2023-03-05T16:37:43.989Z,3.20
2023-03-05T16:40:12.533Z,3.10
2023-03-05T16:42:40.115Z,3.10
2023-03-05T16:45:08.391Z,3.10
2023-03-05T16:47:36.401Z,3.10
2023-03-05T16:50:05.064Z,3.10
2023-03-05T16:52:32.227Z,3.10
2023-03-05T16:54:59.596Z,3.00
2023-03-05T16:57:29.114Z,3.00
2023-03-05T16:59:57.302Z,3.00
2023-03-05T17:02:24.928Z,3.00
2023-03-05T17:04:52.078Z,3.00
2023-03-05T17:07:20.346Z,3.00
2023-03-05T17:09:48.577Z,3.00
2023-03-05T17:12:15.895Z,2.90
2023-03-05T17:14:43.052Z,3.00
2023-03-05T17:17:10.500Z,2.90
2023-03-05T17:19:39.442Z,2.90
2023-03-05T17:22:06.833Z,2.90
2023-03-05T17:24:33.881Z,2.90
2023-03-05T17:27:01.270Z,2.90
2023-03-05T17:29:29.060Z,2.90
2023-03-05T17:31:56.192Z,2.80
2023-03-05T17:34:35.477Z,2.90
2023-03-05T17:37:05.021Z,2.90
2023-03-05T17:39:32.309Z,2.80
2023-03-05T17:42:02.197Z,2.80
2023-03-05T17:44:29.352Z,2.80
2023-03-05T17:46:57.045Z,2.80
2023-03-05T17:49:26.956Z,2.80
2023-03-05T17:51:54.022Z,2.70
2023-03-05T17:54:21.514Z,2.70
2023-03-05T17:56:48.563Z,2.70
2023-03-05T17:59:16.518Z,2.70
2023-03-05T18:01:43.664Z,2.70
2023-03-05T18:04:11.316Z,2.70
2023-03-05T18:06:38.501Z,2.70
2023-03-05T18:09:06.870Z,2.70
2023-03-05T18:11:34.075Z,2.70
2023-03-05T18:14:01.135Z,2.60
2023-03-05T18:16:29.435Z,2.60
2023-03-05T18:18:56.750Z,2.60
2023-03-05T18:21:25.333Z,2.60
2023-03-05T18:23:52.803Z,2.60
2023-03-05T18:26:21.865Z,2.60
2023-03-05T18:28:48.891Z,2.60
2023-03-05T18:31:16.129Z,2.60
2023-03-05T18:33:43.450Z,2.50
2023-03-05T18:36:12.031Z,2.50
2023-03-05T18:38:41.440Z,2.50
2023-03-05T18:41:08.706Z,2.50
2023-03-05T18:43:36.987Z,2.50
2023-03-05T18:46:05.151Z,2.50
2023-03-05T18:48:32.383Z,2.50
2023-03-05T18:51:01.899Z,2.50
2023-03-05T18:53:29.518Z,2.50
2023-03-05T18:55:57.439Z,2.50
2023-03-05T18:58:26.216Z,2.40
2023-03-05T19:00:53.386Z,2.40
2023-03-05T19:03:22.541Z,2.50
2023-03-05T19:05:51.390Z,2.40
2023-03-05T19:08:18.728Z,2.40
2023-03-05T19:10:46.085Z,2.40
2023-03-05T19:13:34.801Z,2.40
2023-03-05T19:16:08.221Z,2.40
2023-03-05T19:18:39.768Z,2.40
2023-03-05T19:21:08.384Z,2.40
2023-03-05T19:23:35.525Z,2.40
2023-03-05T19:26:03.338Z,2.40
2023-03-05T19:28:30.522Z,2.40
2023-03-05T19:30:57.655Z,2.40
2023-03-05T19:33:25.120Z,2.40
2023-03-05T19:35:52.426Z,2.40
2023-03-05T19:38:19.534Z,2.40
2023-03-05T19:40:47.914Z,2.40
2023-03-05T19:43:17.714Z,2.30
2023-03-05T19:45:44.864Z,2.30
2023-03-05T19:48:11.924Z,2.30
2023-03-05T19:50:40.620Z,2.30
2023-03-05T19:53:07.775Z,2.30
2023-03-05T19:55:38.795Z,2.30
2023-03-05T19:58:08.608Z,2.30
2023-03-05T20:00:36.658Z,2.30
2023-03-05T20:03:03.806Z,2.30
2023-03-05T20:05:30.829Z,2.30
2023-03-05T20:07:59.306Z,2.30
2023-03-05T20:10:26.664Z,2.30
2023-03-05T20:12:53.733Z,2.20
2023-03-05T20:15:29.317Z,2.20
2023-03-05T20:17:59.888Z,2.30
2023-03-05T20:20:28.070Z,2.20
2023-03-05T20:22:55.163Z,2.20
2023-03-05T20:25:24.915Z,2.20
2023-03-05T20:27:52.735Z,2.20
2023-03-05T20:30:20.561Z,2.20
2023-03-05T20:32:47.716Z,2.20
2023-03-05T20:35:16.933Z,2.20
2023-03-05T20:37:51.657Z,2.20
2023-03-05T20:40:18.921Z,2.20
2023-03-05T20:42:46.032Z,2.20
2023-03-05T20:45:13.338Z,2.20
2023-03-05T20:47:46.468Z,2.20
2023-03-05T20:50:17.419Z,2.20
2023-03-05T20:52:44.911Z,2.20
2023-03-05T20:55:12.727Z,2.30
2023-03-05T20:57:40.074Z,2.20
2023-03-05T21:00:08.045Z,2.20
2023-03-05T21:02:35.385Z,2.20
2023-03-05T21:05:03.945Z,2.20
2023-03-05T21:07:31.228Z,2.20
2023-03-05T21:09:58.446Z,2.20
2023-03-05T21:12:25.654Z,2.20
2023-03-05T21:14:52.830Z,2.20
2023-03-05T21:17:21.692Z,2.20
2023-03-05T21:19:49.041Z,2.20
2023-03-05T21:22:16.348Z,2.20
2023-03-05T21:24:55.929Z,2.20
2023-03-05T21:27:23.028Z,2.20
2023-03-05T21:29:50.676Z,2.20
2023-03-05T21:32:17.901Z,2.20
2023-03-05T21:34:45.624Z,2.20
2023-03-05T21:37:12.887Z,2.20
2023-03-05T21:39:40.300Z,2.20
2023-03-05T21:42:07.615Z,2.20
2023-03-05T21:44:35.040Z,2.10
2023-03-05T21:47:02.188Z,2.10
2023-03-05T21:49:29.456Z,2.20
2023-03-05T21:52:05.515Z,2.20
2023-03-05T21:54:33.175Z,2.20
2023-03-05T21:57:00.636Z,2.10
2023-03-05T21:59:28.074Z,2.10
2023-03-05T22:01:55.619Z,2.10
2023-03-05T22:04:22.996Z,2.10
2023-03-05T22:06:50.350Z,2.10
2023-03-05T22:09:17.624Z,2.10
2023-03-05T22:11:45.878Z,2.10
2023-03-05T22:14:13.841Z,2.10
2023-03-05T22:16:42.096Z,2.10
2023-03-05T22:19:10.668Z,2.10
2023-03-05T22:21:38.036Z,2.10
2023-03-05T22:24:05.360Z,2.10
2023-03-05T22:26:38.936Z,2.10
2023-03-05T22:29:09.858Z,2.00
2023-03-05T22:31:37.237Z,2.00
2023-03-05T22:34:04.673Z,2.00
2023-03-05T22:36:32.111Z,2.00
2023-03-05T22:38:59.375Z,2.00
2023-03-05T22:41:26.609Z,2.00
2023-03-05T22:43:54.158Z,2.00
2023-03-05T22:46:23.240Z,2.00
2023-03-05T22:48:51.510Z,2.00
2023-03-05T22:51:19.831Z,2.00
2023-03-05T22:53:47.357Z,1.90
2023-03-05T22:56:17.818Z,2.00
2023-03-05T22:58:47.086Z,1.90
2023-03-05T23:01:22.744Z,1.90
2023-03-05T23:03:55.247Z,1.90
2023-03-05T23:06:23.760Z,1.90
2023-03-05T23:08:51.108Z,1.90
2023-03-05T23:11:18.453Z,1.90
2023-03-05T23:13:45.775Z,1.90
2023-03-05T23:16:13.065Z,1.90
2023-03-05T23:18:40.434Z,1.90
2023-03-05T23:21:07.561Z,1.90
2023-03-05T23:23:34.800Z,1.90
2023-03-05T23:26:02.057Z,1.90
2023-03-05T23:28:29.393Z,1.90
2023-03-05T23:30:58.230Z,1.80
2023-03-05T23:33:25.590Z,1.90
2023-03-05T23:36:00.720Z,1.80
2023-03-05T23:38:30.049Z,1.80
2023-03-05T23:41:01.209Z,1.80
2023-03-05T23:43:29.702Z,1.80
2023-03-05T23:45:57.411Z,1.70
2023-03-05T23:48:26.038Z,1.70
2023-03-05T23:50:54.038Z,1.80
2023-03-05T23:53:27.564Z,1.70
2023-03-05T23:55:55.347Z,1.70
2023-03-05T23:58:23.268Z,1.70
